createdAt,value
2023-04-29T00:00:44.850Z,36
2023-04-29T00:03:16.871Z,35
2023-04-29T00:05:47.770Z,32
2023-04-29T00:08:18.562Z,32
2023-04-29T00:10:49.457Z,32
2023-04-29T00:13:20.270Z,32
2023-04-29T00:15:50.949Z,32
2023-04-29T00:18:22.164Z,32
2023-04-29T00:20:53.044Z,29
2023-04-29T00:23:23.956Z,28
2023-04-29T00:25:55.504Z,26
2023-04-29T00:28:27.300Z,30
2023-04-29T00:30:58.290Z,24
2023-04-29T00:33:28.925Z,28
2023-04-29T00:35:59.727Z,24
2023-04-29T00:38:31.232Z,20
2023-04-29T00:41:01.888Z,20
2023-04-29T00:43:32.638Z,19
2023-04-29T00:46:03.663Z,24
2023-04-29T00:48:34.406Z,21
2023-04-29T00:51:05.005Z,24
2023-04-29T00:53:36.057Z,16
2023-04-29T00:56:07.317Z,22
2023-04-29T00:58:37.655Z,20
2023-04-29T01:01:08.857Z,20
2023-04-29T01:03:40.453Z,24
2023-04-29T01:06:11.336Z,20
2023-04-29T01:08:41.532Z,22
2023-04-29T01:11:12.917Z,30
2023-04-29T01:13:44.078Z,20
2023-04-29T01:16:14.873Z,23
2023-04-29T01:18:46.092Z,21
2023-04-29T01:21:16.699Z,23
2023-04-29T01:23:47.701Z,23
2023-04-29T01:26:18.484Z,17
2023-04-29T01:28:49.045Z,20
2023-04-29T01:31:19.573Z,24
2023-04-29T01:33:50.417Z,21
2023-04-29T01:36:21.258Z,24
2023-04-29T01:38:52.369Z,20
2023-04-29T01:41:22.860Z,16
2023-04-29T01:43:53.969Z,16
2023-04-29T01:46:24.596Z,20
2023-04-29T01:48:55.596Z,20
2023-04-29T01:51:26.114Z,16
2023-04-29T01:53:56.861Z,19
2023-04-29T01:56:27.742Z,20
2023-04-29T01:58:56.891Z,16
2023-04-29T02:01:27.307Z,20
2023-04-29T02:03:57.711Z,20
2023-04-29T02:06:28.002Z,16
2023-04-29T02:08:58.694Z,20
2023-04-29T02:11:29.199Z,22
2023-04-29T02:13:59.911Z,16
2023-04-29T02:16:30.733Z,18
2023-04-29T02:19:01.399Z,20
2023-04-29T02:21:32.209Z,13
2023-04-29T02:24:02.892Z,12
2023-04-29T02:26:33.757Z,16
2023-04-29T02:29:04.430Z,16
2023-04-29T02:31:35.536Z,16
2023-04-29T02:34:06.502Z,19
2023-04-29T02:36:37.123Z,20
2023-04-29T02:39:07.846Z,16
2023-04-29T02:41:39.106Z,16
2023-04-29T02:44:09.857Z,16
2023-04-29T02:46:40.795Z,16
2023-04-29T02:49:11.870Z,12
2023-04-29T02:51:42.921Z,20
2023-04-29T02:54:13.141Z,16
2023-04-29T02:56:44.150Z,13
2023-04-29T02:59:15.076Z,12
2023-04-29T03:01:46.362Z,12
2023-04-29T03:04:17.663Z,13
2023-04-29T03:06:48.319Z,12
2023-04-29T03:09:19.313Z,14
2023-04-29T03:11:50.198Z,12
2023-04-29T03:14:21.108Z,16
2023-04-29T03:16:51.288Z,16
2023-04-29T03:19:22.394Z,16
2023-04-29T03:21:54.072Z,17
2023-04-29T03:24:24.386Z,19
2023-04-29T03:26:55.260Z,19
2023-04-29T03:29:26.398Z,19
2023-04-29T03:31:57.421Z,13
2023-04-29T03:34:28.035Z,20
2023-04-29T03:36:58.925Z,20
2023-04-29T03:39:30.417Z,17
2023-04-29T03:42:01.748Z,21
2023-04-29T03:44:33.228Z,21
2023-04-29T03:47:04.286Z,16
2023-04-29T03:49:35.024Z,24
2023-04-29T03:52:06.047Z,20
2023-04-29T03:54:36.953Z,20
2023-04-29T03:57:07.901Z,20
2023-04-29T03:59:38.912Z,16
2023-04-29T04:02:09.969Z,22
2023-04-29T04:04:41.509Z,16
2023-04-29T04:07:12.038Z,24
2023-04-29T04:09:42.767Z,21
2023-04-29T04:12:13.454Z,20
2023-04-29T04:14:43.908Z,20
2023-04-29T04:17:15.019Z,21
2023-04-29T04:19:45.976Z,17
2023-04-29T04:22:17.090Z,20
2023-04-29T04:24:48.613Z,18
2023-04-29T04:27:20.152Z,18
2023-04-29T04:29:50.679Z,18
2023-04-29T04:32:21.711Z,20
2023-04-29T04:34:52.329Z,20
2023-04-29T04:37:22.907Z,20
2023-04-29T04:39:54.331Z,17
2023-04-29T04:42:25.003Z,20
2023-04-29T04:44:56.347Z,20
2023-04-29T04:47:27.067Z,20
2023-04-29T04:49:57.460Z,20
2023-04-29T04:52:28.607Z,24
2023-04-29T04:54:59.551Z,24
2023-04-29T04:57:30.244Z,21
2023-04-29T05:00:01.768Z,20
2023-04-29T05:02:32.822Z,20
2023-04-29T05:05:03.690Z,20
2023-04-29T05:07:34.657Z,23
2023-04-29T05:10:05.266Z,17
2023-04-29T05:12:36.321Z,20
2023-04-29T05:15:07.372Z,26
2023-04-29T06:33:40.235Z,31
2023-04-29T06:36:19.807Z,31
2023-04-29T06:38:50.352Z,29
2023-04-29T06:41:24.269Z,36
2023-04-29T06:44:04.629Z,32
2023-04-29T06:46:35.133Z,29
2023-04-29T06:49:07.292Z,34
2023-04-29T06:51:38.270Z,32
2023-04-29T06:54:14.713Z,32
2023-04-29T06:56:45.360Z,29
2023-04-29T06:59:17.011Z,28
2023-04-29T07:01:49.787Z,32
2023-04-29T07:04:18.268Z,33
2023-04-29T07:06:49.088Z,44
2023-04-29T07:09:21.176Z,32
2023-04-29T07:11:50.363Z,24
2023-04-29T07:14:20.976Z,28
2023-04-29T07:16:51.806Z,29
2023-04-29T07:19:23.323Z,32
2023-04-29T07:21:53.692Z,24
2023-04-29T07:24:24.492Z,29
2023-04-29T07:26:55.221Z,24
2023-04-29T07:29:25.437Z,24
2023-04-29T07:31:54.312Z,24
2023-04-29T07:34:27.601Z,17
2023-04-29T07:36:58.198Z,24
2023-04-29T07:39:27.123Z,21
2023-04-29T07:41:59.479Z,23
2023-04-29T07:44:30.034Z,20
2023-04-29T07:47:00.466Z,20
2023-04-29T07:49:32.044Z,50
2023-04-29T07:52:04.075Z,21
2023-04-29T07:54:34.560Z,20
2023-04-29T07:57:04.521Z,16
2023-04-29T07:59:38.258Z,32
2023-04-29T08:02:08.538Z,26
2023-04-29T08:04:41.246Z,23
2023-04-29T08:07:11.712Z,24
2023-04-29T08:09:43.276Z,16
2023-04-29T08:12:12.209Z,16
2023-04-29T08:14:44.152Z,20
2023-04-29T08:17:15.066Z,17
2023-04-29T08:19:45.728Z,24
2023-04-29T08:22:16.041Z,24
2023-04-29T08:24:47.651Z,21
2023-04-29T08:27:18.300Z,20
2023-04-29T08:29:48.814Z,19
2023-04-29T08:32:19.347Z,18
2023-04-29T08:34:51.613Z,20
2023-04-29T08:37:21.666Z,17
2023-04-29T08:39:52.780Z,17
2023-04-29T08:42:23.210Z,20
2023-04-29T08:44:53.732Z,21
2023-04-29T08:47:25.410Z,20
2023-04-29T08:49:55.793Z,15
2023-04-29T08:52:28.512Z,16
2023-04-29T08:54:59.373Z,12
2023-04-29T08:57:28.860Z,12
2023-04-29T09:00:00.456Z,12
2023-04-29T09:02:31.136Z,20
2023-04-29T09:05:01.739Z,12
2023-04-29T09:07:32.471Z,13
2023-04-29T09:10:01.516Z,12
2023-04-29T09:12:31.721Z,20
2023-04-29T09:15:03.292Z,24
2023-04-29T09:17:40.180Z,23
2023-04-29T09:20:12.411Z,28
2023-04-29T09:22:44.048Z,16
2023-04-29T09:25:14.476Z,20
2023-04-29T09:27:44.897Z,15
2023-04-29T09:30:15.333Z,16
2023-04-29T09:32:44.482Z,8
2023-04-29T09:35:14.752Z,13
2023-04-29T09:37:46.808Z,25
2023-04-29T09:40:17.832Z,30
2023-04-29T09:42:49.554Z,16
2023-04-29T09:45:20.624Z,17
2023-04-29T09:47:52.575Z,20
2023-04-29T09:50:23.597Z,14
2023-04-29T09:52:54.641Z,16
2023-04-29T09:55:25.460Z,16
2023-04-29T09:57:54.671Z,20
2023-04-29T10:00:25.768Z,28
2023-04-29T10:02:56.054Z,16
2023-04-29T10:05:26.845Z,15
2023-04-29T10:07:57.284Z,12
2023-04-29T10:10:29.584Z,20
2023-04-29T10:12:58.436Z,13
2023-04-29T10:15:29.181Z,13
2023-04-29T10:17:59.865Z,12
2023-04-29T10:20:33.234Z,13
2023-04-29T10:23:08.950Z,14
2023-04-29T10:25:39.488Z,16
2023-04-29T10:28:08.465Z,16
2023-04-29T10:30:39.392Z,27
2023-04-29T10:33:10.923Z,20
2023-04-29T10:35:40.895Z,21
2023-04-29T10:38:11.705Z,15
2023-04-29T10:40:42.046Z,12
2023-04-29T10:43:12.744Z,20
2023-04-29T10:45:43.557Z,16
2023-04-29T10:48:14.698Z,20
2023-04-29T10:50:46.323Z,18
2023-04-29T10:53:18.150Z,16
2023-04-29T10:55:49.938Z,16
2023-04-29T10:58:20.514Z,11
2023-04-29T11:00:50.834Z,13
2023-04-29T11:03:22.543Z,12
2023-04-29T11:05:55.061Z,16
2023-04-29T11:08:26.507Z,25
2023-04-29T11:10:57.383Z,14
2023-04-29T11:13:28.166Z,16
2023-04-29T11:15:58.517Z,12
2023-04-29T11:18:29.094Z,19
2023-04-29T11:20:59.883Z,25
2023-04-29T11:23:31.076Z,16
2023-04-29T11:26:04.165Z,12
2023-04-29T11:28:34.594Z,20
2023-04-29T11:31:05.302Z,20
2023-04-29T11:33:35.517Z,32
2023-04-29T11:36:05.883Z,48
2023-04-29T11:38:43.376Z,22
2023-04-29T11:41:12.429Z,20
2023-04-29T11:43:44.450Z,32
2023-04-29T11:46:15.350Z,28
2023-04-29T11:48:45.748Z,32
2023-04-29T11:51:14.938Z,17
2023-04-29T11:53:45.825Z,25
2023-04-29T11:56:16.178Z,27
2023-04-29T11:58:46.897Z,16
2023-04-29T12:01:17.252Z,9
2023-04-29T12:03:46.806Z,12
2023-04-29T12:06:18.838Z,12
2023-04-29T12:08:49.211Z,15
2023-04-29T12:11:20.353Z,16
2023-04-29T12:13:52.518Z,11
2023-04-29T12:16:22.860Z,11
2023-04-29T12:18:54.307Z,8
2023-04-29T12:21:25.961Z,8
2023-04-29T12:23:56.723Z,12
2023-04-29T12:26:28.105Z,12
2023-04-29T12:28:58.774Z,9
2023-04-29T12:31:29.507Z,12
2023-04-29T12:34:00.179Z,12
2023-04-29T12:36:38.207Z,9
2023-04-29T12:39:12.343Z,8
2023-04-29T12:41:43.502Z,8
2023-04-29T12:44:13.015Z,14
2023-04-29T12:46:44.210Z,12
2023-04-29T12:49:14.007Z,12
2023-04-29T12:51:44.427Z,9
2023-04-29T12:54:17.174Z,12
2023-04-29T12:56:47.693Z,13
2023-04-29T12:59:18.257Z,16
2023-04-29T13:01:49.455Z,12
2023-04-29T13:04:19.358Z,8
2023-04-29T13:06:51.072Z,16
2023-04-29T13:09:24.324Z,12
2023-04-29T13:11:55.958Z,12
2023-04-29T13:14:27.999Z,20
2023-04-29T13:17:00.053Z,12
2023-04-29T13:19:43.885Z,10
2023-04-29T13:22:01.919Z,12
2023-04-29T13:24:32.425Z,16
2023-04-29T13:27:03.143Z,12
2023-04-29T13:29:33.788Z,12
2023-04-29T13:32:05.821Z,12
2023-04-29T13:34:36.474Z,12
2023-04-29T13:37:07.081Z,11
2023-04-29T13:39:38.789Z,12
2023-04-29T13:42:10.442Z,12
2023-04-29T13:47:11.239Z,12
2023-04-29T13:52:50.533Z,12
2023-04-29T13:55:03.997Z,16
2023-04-29T13:59:52.747Z,12
2023-04-29T14:02:25.313Z,16
2023-04-29T14:04:53.018Z,13
2023-04-29T14:07:23.324Z,12
2023-04-29T14:09:53.763Z,12
2023-04-29T14:12:22.862Z,16
2023-04-29T14:14:53.443Z,20
2023-04-29T14:17:24.896Z,16
2023-04-29T14:19:56.349Z,20
2023-04-29T14:22:27.323Z,13
2023-04-29T14:24:57.971Z,13
2023-04-29T14:27:28.614Z,19
2023-04-29T14:29:59.638Z,8
2023-04-29T14:32:30.388Z,13
2023-04-29T14:35:03.696Z,15
2023-04-29T14:37:34.284Z,12
2023-04-29T14:40:04.327Z,10
2023-04-29T14:42:44.455Z,12
2023-04-29T14:45:13.082Z,12
2023-04-29T14:47:43.073Z,16
2023-04-29T14:50:13.267Z,16
2023-04-29T14:52:43.465Z,13
2023-04-29T14:55:14.470Z,12
2023-04-29T14:57:44.927Z,15
2023-04-29T15:00:14.965Z,16
2023-04-29T15:02:44.800Z,12
2023-04-29T15:05:15.857Z,20
2023-04-29T15:07:50.392Z,17
2023-04-29T15:10:22.202Z,16
2023-04-29T15:12:53.179Z,16
2023-04-29T15:15:23.718Z,16
2023-04-29T15:17:55.039Z,12
2023-04-29T15:20:25.110Z,15
2023-04-29T15:22:55.817Z,12
2023-04-29T15:25:31.536Z,11
2023-04-29T15:28:03.513Z,16
2023-04-29T15:30:34.023Z,12
2023-04-29T15:33:05.892Z,12
2023-04-29T15:35:35.684Z,12
2023-04-29T15:38:07.394Z,12
2023-04-29T15:40:38.078Z,16
2023-04-29T15:43:10.574Z,12
2023-04-29T15:45:41.388Z,24
2023-04-29T15:48:12.233Z,20
2023-04-29T15:50:42.648Z,16
2023-04-29T15:53:15.904Z,12
2023-04-29T15:55:46.646Z,16
2023-04-29T15:58:15.728Z,20
2023-04-29T16:00:46.295Z,16
2023-04-29T16:03:16.977Z,23
2023-04-29T16:05:47.423Z,20
2023-04-29T16:08:19.975Z,16
2023-04-29T16:10:50.305Z,12
2023-04-29T16:13:21.027Z,14
2023-04-29T16:15:52.032Z,17
2023-04-29T16:18:22.427Z,12
2023-04-29T16:20:53.047Z,9
2023-04-29T16:23:23.369Z,12
2023-04-29T16:25:53.857Z,8
2023-04-29T16:28:25.437Z,16
2023-04-29T16:30:56.123Z,16
2023-04-29T16:33:29.277Z,16
2023-04-29T16:36:03.748Z,20
2023-04-29T16:38:34.432Z,21
2023-04-29T16:41:06.143Z,16
2023-04-29T16:49:03.950Z,12
2023-04-29T16:51:34.079Z,12
2023-04-29T16:54:04.484Z,12
2023-04-29T16:56:34.691Z,12
2023-04-29T16:59:05.648Z,12
2023-04-29T17:01:37.332Z,12
2023-04-29T17:04:08.198Z,9
2023-04-29T17:06:38.692Z,12
2023-04-29T17:09:09.268Z,11
2023-04-29T17:11:40.252Z,13
2023-04-29T17:14:10.741Z,16
2023-04-29T17:16:41.239Z,12
2023-04-29T17:19:12.974Z,12
2023-04-29T17:21:47.246Z,8
2023-04-29T17:24:19.081Z,16
2023-04-29T17:26:49.578Z,16
2023-04-29T17:29:21.227Z,12
2023-04-29T17:31:51.850Z,12
2023-04-29T17:34:21.330Z,12
2023-04-29T17:36:51.704Z,13
2023-04-29T17:39:20.845Z,16
2023-04-29T17:41:52.553Z,16
2023-04-29T17:44:23.692Z,13
2023-04-29T17:46:57.539Z,12
2023-04-29T17:49:28.264Z,13
2023-04-29T17:52:00.964Z,15
2023-04-29T17:54:31.945Z,16
2023-04-29T17:57:07.165Z,12
2023-04-29T17:59:37.663Z,12
2023-04-29T18:02:09.752Z,12
2023-04-29T18:04:42.085Z,16
2023-04-29T18:07:14.124Z,12
2023-04-29T18:09:44.436Z,13
2023-04-29T18:12:14.896Z,28
2023-04-29T18:14:45.258Z,32
2023-04-29T18:17:15.914Z,16
2023-04-29T18:19:50.410Z,12
2023-04-29T18:22:20.395Z,15
2023-04-29T18:24:52.285Z,15
2023-04-29T18:27:24.496Z,16
2023-04-29T18:29:55.463Z,24
2023-04-29T18:32:25.853Z,16
2023-04-29T18:34:56.604Z,20
2023-04-29T18:37:27.338Z,23
2023-04-29T18:39:59.213Z,21
2023-04-29T18:42:31.918Z,20
2023-04-29T18:45:02.744Z,22
2023-04-29T18:47:33.264Z,24
2023-04-29T18:50:05.063Z,28
2023-04-29T18:52:35.763Z,28
2023-04-29T18:55:06.250Z,32
2023-04-29T18:57:37.034Z,26
2023-04-29T19:00:08.236Z,28
2023-04-29T19:02:39.385Z,28
2023-04-29T19:05:08.615Z,29
2023-04-29T19:07:39.446Z,28
2023-04-29T19:10:09.713Z,28
2023-04-29T19:12:43.480Z,28
2023-04-29T19:15:14.025Z,28
2023-04-29T19:17:44.483Z,28
2023-04-29T19:20:14.760Z,28
2023-04-29T19:22:45.231Z,26
2023-04-29T19:25:15.961Z,24
2023-04-29T19:27:51.553Z,24
2023-04-29T19:30:22.337Z,22
2023-04-29T19:32:53.027Z,26
2023-04-29T19:35:23.330Z,21
2023-04-29T19:38:00.251Z,24
2023-04-29T19:40:38.189Z,28
2023-04-29T19:43:12.475Z,32
2023-04-29T19:45:42.965Z,27
2023-04-29T19:49:52.426Z,32
2023-04-29T19:52:24.913Z,35
2023-04-29T19:57:46.017Z,39
2023-04-29T20:18:51.373Z,40
2023-04-29T20:21:21.731Z,36
2023-04-29T20:23:52.086Z,31
2023-04-29T20:29:00.591Z,48
2023-04-29T20:31:31.762Z,48
2023-04-29T20:34:02.208Z,48
2023-04-29T20:36:32.866Z,45
2023-04-29T20:39:03.578Z,48
2023-04-29T20:41:34.463Z,47
2023-04-29T20:44:05.163Z,47
2023-04-29T20:46:35.486Z,51
2023-04-29T20:49:06.582Z,52
2023-04-29T20:51:37.293Z,48
2023-04-29T20:54:08.074Z,52
2023-04-29T20:56:38.871Z,49
2023-04-29T20:59:09.418Z,44
2023-04-29T21:01:38.772Z,46
2023-04-29T21:04:09.067Z,48
2023-04-29T21:06:39.355Z,45
2023-04-29T21:09:10.939Z,43
2023-04-29T21:11:42.894Z,44
2023-04-29T21:16:51.885Z,40
2023-04-29T21:19:35.321Z,40
2023-04-29T21:22:05.514Z,41
2023-04-29T21:24:38.369Z,39
2023-04-29T21:27:07.627Z,38
2023-04-29T21:29:37.886Z,37
2023-04-29T21:32:09.691Z,36
2023-04-29T21:34:40.302Z,35
2023-04-29T21:37:11.224Z,34
2023-04-29T21:39:42.101Z,32
2023-04-29T21:42:12.265Z,35
2023-04-29T21:47:28.803Z,32
2023-04-29T21:49:59.391Z,37
2023-04-29T21:52:32.262Z,36
2023-04-29T21:55:07.304Z,36
2023-04-29T21:57:43.912Z,39
2023-04-29T22:00:06.185Z,40
2023-04-29T22:02:37.042Z,36
2023-04-29T22:05:07.640Z,44
2023-04-29T22:07:38.232Z,36
2023-04-29T22:10:09.085Z,40
2023-04-29T22:12:40.895Z,36
2023-04-29T22:15:20.929Z,37
2023-04-29T22:17:42.568Z,39
2023-04-29T22:20:13.225Z,38
2023-04-29T22:22:43.726Z,38
2023-04-29T22:25:14.658Z,32
2023-04-29T22:27:45.855Z,36
2023-04-29T22:30:17.110Z,36
2023-04-29T22:32:49.315Z,36
2023-04-29T22:35:20.322Z,36
2023-04-29T22:37:56.553Z,38
2023-04-29T22:46:05.997Z,32
2023-04-29T22:48:36.866Z,33
2023-04-29T22:51:07.944Z,36
2023-04-29T22:53:38.712Z,36
2023-04-29T22:56:09.352Z,38
2023-04-29T22:58:40.250Z,36
2023-04-29T23:01:12.076Z,36
2023-04-29T23:03:42.947Z,40
2023-04-29T23:06:13.818Z,36
2023-04-29T23:08:44.432Z,40
2023-04-29T23:11:15.642Z,36
2023-04-29T23:13:46.139Z,37
2023-04-29T23:16:17.387Z,39
2023-04-29T23:18:49.909Z,36
2023-04-29T23:21:25.799Z,40
2023-04-29T23:23:56.966Z,36
2023-04-29T23:26:27.536Z,36
2023-04-29T23:28:59.142Z,36
2023-04-29T23:31:29.961Z,36
2023-04-29T23:34:01.917Z,40
2023-04-29T23:36:32.704Z,40
2023-04-29T23:39:03.492Z,40
2023-04-29T23:41:34.469Z,41
2023-04-29T23:44:04.836Z,39
2023-04-29T23:46:33.895Z,38
2023-04-29T23:49:04.216Z,38
2023-04-29T23:51:33.591Z,38
2023-04-29T23:54:04.549Z,40
2023-04-29T23:56:41.020Z,40
2023-04-29T23:59:12.043Z,38
